Terminal Aerodrome Forecast
Issued by NWS

Home | Current Version | Previous Version | Text Only | Print | Product List | Glossary On
Versions: 1 2 3 4 5 6 7 8 9 10 11 12 13 14
000
FTUS46 KMTR 312340
TAFSJC
TAF
KSJC 312340Z 0100/0124 32014G20KT P6SM FEW016
     FM010400 30008KT P6SM SKC
      TEMPO 0110/0114 BKN015
     FM011400 VRB04KT P6SM BKN015
     FM011700 VRB03KT P6SM SCT014
     FM011800 31010KT P6SM FEW020=

USA.gov is the U.S. government's official web portal to all federal, state and local government web resources and services.